NWA987 PANC-PACD
Flight info
| Callsign | NWA987 |
|---|---|
| Flight time | 2h 39m |
| Altitude | 12000 |
| Route | ENA V456 CDB |
| Aircraft | DC6/M-SDFHY/C |
Departure
| Time | 2026-05-05 04:49 |
|---|---|
| Airport | Ted Stevens Anchorage International Airport (PANC) |
Arrival
| Time | 2026-05-05 07:29 |
|---|---|
| Airport | Cold Bay Airport (PACD) |
| Time | Latitude | Longitude | Altitude | Speed | Heading |
|---|---|---|---|---|---|
| 2026-05-05 04:32 | 61.17520 | -149.99144 | 105 ft | 0 kts | 70° |
| 2026-05-05 04:37 | 61.17520 | -149.99145 | 105 ft | 0 kts | 70° |
| 2026-05-05 04:42 | 61.17522 | -149.99135 | 105 ft | 5 kts | 69° |
| 2026-05-05 04:42 | 61.17528 | -149.99014 | 105 ft | 9 kts | 129° |
| 2026-05-05 04:42 | 61.17462 | -149.98950 | 105 ft | 12 kts | 161° |
| 2026-05-05 04:42 | 61.17381 | -149.98887 | 107 ft | 13 kts | 160° |
| 2026-05-05 04:43 | 61.17298 | -149.98825 | 109 ft | 12 kts | 160° |
| 2026-05-05 04:43 | 61.17225 | -149.98769 | 112 ft | 11 kts | 162° |
| 2026-05-05 04:43 | 61.17157 | -149.98721 | 113 ft | 10 kts | 170° |
| 2026-05-05 04:43 | 61.17123 | -149.98764 | 115 ft | 5 kts | 251° |
| 2026-05-05 04:44 | 61.17119 | -149.98871 | 115 ft | 10 kts | 274° |
| 2026-05-05 04:44 | 61.17124 | -149.99057 | 116 ft | 15 kts | 271° |
| 2026-05-05 04:44 | 61.17125 | -149.99277 | 119 ft | 15 kts | 268° |
| 2026-05-05 04:44 | 61.17125 | -149.99483 | 123 ft | 13 kts | 269° |
| 2026-05-05 04:45 | 61.17124 | -149.99664 | 127 ft | 11 kts | 270° |
| 2026-05-05 04:45 | 61.17125 | -149.99812 | 129 ft | 9 kts | 271° |
| 2026-05-05 04:45 | 61.17126 | -149.99927 | 132 ft | 8 kts | 270° |
| 2026-05-05 04:45 | 61.17124 | -150.00072 | 135 ft | 13 kts | 269° |
| 2026-05-05 04:46 | 61.17124 | -150.00318 | 136 ft | 22 kts | 270° |
| 2026-05-05 04:46 | 61.17124 | -150.00671 | 137 ft | 20 kts | 269° |
| 2026-05-05 04:46 | 61.17109 | -150.00802 | 136 ft | 8 kts | 211° |
| 2026-05-05 04:46 | 61.17048 | -150.00814 | 135 ft | 9 kts | 178° |
| 2026-05-05 04:47 | 61.16987 | -150.00804 | 136 ft | 6 kts | 152° |
| 2026-05-05 04:47 | 61.16976 | -150.00748 | 137 ft | 4 kts | 83° |
| 2026-05-05 04:47 | 61.16976 | -150.00737 | 137 ft | 0 kts | 85° |
| 2026-05-05 04:48 | 61.16977 | -150.00483 | 136 ft | 46 kts | 89° |
| 2026-05-05 04:48 | 61.16977 | -149.99428 | 127 ft | 99 kts | 91° |
| 2026-05-05 04:49 | 61.16977 | -149.97776 | 238 ft | 121 kts | 88° |
| 2026-05-05 04:49 | 61.16951 | -149.95938 | 435 ft | 134 kts | 91° |
| 2026-05-05 04:49 | 61.16926 | -149.93948 | 718 ft | 143 kts | 95° |
| 2026-05-05 04:49 | 61.16624 | -149.91914 | 955 ft | 154 kts | 120° |
| 2026-05-05 04:50 | 61.15872 | -149.90300 | 1179 ft | 161 kts | 152° |
| 2026-05-05 04:50 | 61.14774 | -149.89964 | 1413 ft | 165 kts | 193° |
| 2026-05-05 04:50 | 61.13794 | -149.91262 | 1590 ft | 167 kts | 217° |
| 2026-05-05 04:50 | 61.12874 | -149.92714 | 1894 ft | 169 kts | 213° |
| 2026-05-05 04:51 | 61.11908 | -149.94112 | 2105 ft | 173 kts | 211° |
| 2026-05-05 04:51 | 61.10909 | -149.95543 | 2350 ft | 176 kts | 212° |
| 2026-05-05 04:51 | 61.09897 | -149.97008 | 2620 ft | 178 kts | 211° |
| 2026-05-05 04:51 | 61.08912 | -149.98565 | 2864 ft | 179 kts | 217° |
| 2026-05-05 04:52 | 61.07939 | -150.00165 | 3120 ft | 181 kts | 214° |
| 2026-05-05 04:52 | 61.06941 | -150.01785 | 3390 ft | 182 kts | 214° |
| 2026-05-05 04:52 | 61.05949 | -150.03416 | 3664 ft | 182 kts | 214° |
| 2026-05-05 04:52 | 61.04962 | -150.05060 | 3931 ft | 183 kts | 214° |
| 2026-05-05 04:53 | 61.03974 | -150.06711 | 4207 ft | 183 kts | 214° |
| 2026-05-05 04:53 | 61.02991 | -150.08371 | 4506 ft | 182 kts | 214° |
| 2026-05-05 04:53 | 61.02009 | -150.10034 | 4795 ft | 184 kts | 214° |
| 2026-05-05 04:53 | 61.01021 | -150.11710 | 5089 ft | 184 kts | 214° |
| 2026-05-05 04:54 | 61.00039 | -150.13364 | 5354 ft | 181 kts | 214° |
| 2026-05-05 04:54 | 60.99087 | -150.15041 | 5626 ft | 180 kts | 220° |
| 2026-05-05 04:54 | 60.98314 | -150.17048 | 5942 ft | 178 kts | 233° |
| 2026-05-05 04:54 | 60.97754 | -150.19293 | 6220 ft | 174 kts | 238° |
| 2026-05-05 04:55 | 60.97200 | -150.21500 | 6406 ft | 173 kts | 237° |
| 2026-05-05 04:55 | 60.96614 | -150.23719 | 6502 ft | 179 kts | 236° |
| 2026-05-05 04:55 | 60.96009 | -150.25986 | 6637 ft | 182 kts | 236° |
| 2026-05-05 04:55 | 60.95391 | -150.28278 | 6789 ft | 183 kts | 236° |
| 2026-05-05 04:56 | 60.94777 | -150.30555 | 7009 ft | 181 kts | 236° |
| 2026-05-05 04:56 | 60.94169 | -150.32813 | 7209 ft | 180 kts | 236° |
| 2026-05-05 04:56 | 60.93562 | -150.35065 | 7408 ft | 179 kts | 236° |
| 2026-05-05 04:56 | 60.92959 | -150.37309 | 7595 ft | 179 kts | 236° |
| 2026-05-05 04:57 | 60.92357 | -150.39534 | 7781 ft | 178 kts | 236° |
| 2026-05-05 04:57 | 60.91713 | -150.41672 | 7965 ft | 174 kts | 230° |
| 2026-05-05 04:57 | 60.90996 | -150.43657 | 8143 ft | 173 kts | 228° |
| 2026-05-05 04:57 | 60.90256 | -150.45618 | 8328 ft | 173 kts | 227° |
| 2026-05-05 04:58 | 60.89515 | -150.47560 | 8524 ft | 174 kts | 227° |
| 2026-05-05 04:58 | 60.89009 | -150.48875 | 8661 ft | 173 kts | 227° |
| 2026-05-05 04:58 | 60.88026 | -150.51427 | 8925 ft | 171 kts | 227° |
| 2026-05-05 04:58 | 60.87538 | -150.52689 | 9054 ft | 170 kts | 227° |
| 2026-05-05 04:59 | 60.86803 | -150.54588 | 9252 ft | 169 kts | 227° |
| 2026-05-05 04:59 | 60.86064 | -150.56501 | 9424 ft | 170 kts | 227° |
| 2026-05-05 04:59 | 60.85334 | -150.58384 | 9565 ft | 171 kts | 227° |
| 2026-05-05 04:59 | 60.84578 | -150.60330 | 9711 ft | 173 kts | 227° |
| 2026-05-05 05:00 | 60.83829 | -150.62256 | 9863 ft | 173 kts | 227° |
| 2026-05-05 05:00 | 60.83087 | -150.64165 | 10004 ft | 174 kts | 227° |
| 2026-05-05 05:00 | 60.82332 | -150.66106 | 10147 ft | 174 kts | 227° |
| 2026-05-05 05:00 | 60.81577 | -150.68046 | 10293 ft | 174 kts | 227° |
| 2026-05-05 05:01 | 60.80819 | -150.69990 | 10446 ft | 175 kts | 227° |
| 2026-05-05 05:01 | 60.80059 | -150.71940 | 10597 ft | 175 kts | 228° |
| 2026-05-05 05:01 | 60.79301 | -150.73883 | 10751 ft | 175 kts | 227° |
| 2026-05-05 05:01 | 60.78546 | -150.75823 | 10894 ft | 175 kts | 228° |
| 2026-05-05 05:02 | 60.77790 | -150.77764 | 11053 ft | 174 kts | 228° |
| 2026-05-05 05:02 | 60.77036 | -150.79698 | 11205 ft | 173 kts | 228° |
| 2026-05-05 05:02 | 60.76283 | -150.81628 | 11365 ft | 174 kts | 228° |
| 2026-05-05 05:02 | 60.75529 | -150.83562 | 11546 ft | 174 kts | 228° |
| 2026-05-05 05:03 | 60.74774 | -150.85494 | 11707 ft | 174 kts | 228° |
| 2026-05-05 05:03 | 60.74020 | -150.87428 | 11860 ft | 175 kts | 228° |
| 2026-05-05 05:03 | 60.73256 | -150.89382 | 11974 ft | 177 kts | 228° |
| 2026-05-05 05:03 | 60.72484 | -150.91356 | 12018 ft | 184 kts | 228° |
| 2026-05-05 05:04 | 60.71672 | -150.93428 | 12023 ft | 190 kts | 228° |
| 2026-05-05 05:04 | 60.70833 | -150.95571 | 12024 ft | 196 kts | 228° |
| 2026-05-05 05:04 | 60.69970 | -150.97776 | 12024 ft | 201 kts | 228° |
| 2026-05-05 05:04 | 60.69087 | -151.00033 | 12026 ft | 206 kts | 228° |
| 2026-05-05 05:05 | 60.68196 | -151.02316 | 12013 ft | 206 kts | 228° |
| 2026-05-05 05:05 | 60.67300 | -151.04610 | 12003 ft | 207 kts | 228° |
| 2026-05-05 05:05 | 60.66406 | -151.06899 | 11997 ft | 207 kts | 229° |
| 2026-05-05 05:05 | 60.65504 | -151.09211 | 12001 ft | 209 kts | 229° |
| 2026-05-05 05:06 | 60.64594 | -151.11535 | 11990 ft | 211 kts | 229° |
| 2026-05-05 05:06 | 60.63672 | -151.13878 | 11993 ft | 212 kts | 228° |
| 2026-05-05 05:06 | 60.62742 | -151.16219 | 11989 ft | 213 kts | 228° |
| 2026-05-05 05:06 | 60.61811 | -151.18558 | 11994 ft | 213 kts | 228° |
| 2026-05-05 05:07 | 60.60878 | -151.20909 | 11994 ft | 214 kts | 229° |
| 2026-05-05 05:07 | 60.60067 | -151.23465 | 11993 ft | 216 kts | 235° |
| 2026-05-05 05:07 | 60.59278 | -151.26074 | 11989 ft | 217 kts | 234° |
| 2026-05-05 05:07 | 60.58488 | -151.28691 | 11997 ft | 217 kts | 234° |
| 2026-05-05 05:08 | 60.57731 | -151.31358 | 11996 ft | 218 kts | 237° |
| 2026-05-05 05:08 | 60.56986 | -151.34057 | 11987 ft | 219 kts | 236° |
| 2026-05-05 05:08 | 60.56230 | -151.36746 | 11990 ft | 219 kts | 236° |
| 2026-05-05 05:08 | 60.55463 | -151.39435 | 11997 ft | 220 kts | 236° |
| 2026-05-05 05:09 | 60.54689 | -151.42114 | 11991 ft | 220 kts | 236° |
| 2026-05-05 05:09 | 60.53909 | -151.44792 | 11985 ft | 220 kts | 235° |
| 2026-05-05 05:09 | 60.53125 | -151.47471 | 11987 ft | 221 kts | 235° |
| 2026-05-05 05:09 | 60.52336 | -151.50151 | 11993 ft | 221 kts | 235° |
| 2026-05-05 05:10 | 60.51546 | -151.52829 | 11993 ft | 221 kts | 235° |
| 2026-05-05 05:10 | 60.50752 | -151.55512 | 11993 ft | 221 kts | 235° |
| 2026-05-05 05:10 | 60.49960 | -151.58185 | 11994 ft | 221 kts | 235° |
| 2026-05-05 05:10 | 60.49164 | -151.60867 | 11992 ft | 222 kts | 235° |
| 2026-05-05 05:11 | 60.48368 | -151.63544 | 11993 ft | 222 kts | 235° |
| 2026-05-05 05:11 | 60.47568 | -151.66234 | 11991 ft | 222 kts | 235° |
| 2026-05-05 05:11 | 60.46770 | -151.68914 | 11994 ft | 222 kts | 235° |
| 2026-05-05 05:11 | 60.45971 | -151.71596 | 12002 ft | 222 kts | 235° |
| 2026-05-05 05:12 | 60.45173 | -151.74274 | 11998 ft | 222 kts | 235° |
| 2026-05-05 05:12 | 60.44371 | -151.76960 | 11994 ft | 223 kts | 235° |
| 2026-05-05 05:12 | 60.43569 | -151.79646 | 11997 ft | 223 kts | 235° |
| 2026-05-05 05:12 | 60.42766 | -151.82332 | 12000 ft | 223 kts | 234° |
| 2026-05-05 05:13 | 60.41963 | -151.85016 | 11998 ft | 223 kts | 234° |
| 2026-05-05 05:13 | 60.41156 | -151.87710 | 11993 ft | 224 kts | 234° |
| 2026-05-05 05:13 | 60.40352 | -151.90394 | 11992 ft | 224 kts | 234° |
| 2026-05-05 05:13 | 60.39543 | -151.93097 | 11996 ft | 224 kts | 234° |
| 2026-05-05 05:14 | 60.38734 | -151.95791 | 11993 ft | 224 kts | 234° |
| 2026-05-05 05:14 | 60.37925 | -151.98485 | 11991 ft | 224 kts | 234° |
| 2026-05-05 05:14 | 60.37116 | -152.01180 | 11989 ft | 224 kts | 234° |
| 2026-05-05 05:14 | 60.36305 | -152.03873 | 11993 ft | 224 kts | 234° |
| 2026-05-05 05:15 | 60.35492 | -152.06581 | 11996 ft | 224 kts | 234° |
| 2026-05-05 05:15 | 60.34682 | -152.09270 | 11997 ft | 225 kts | 234° |
| 2026-05-05 05:15 | 60.33866 | -152.11978 | 11991 ft | 225 kts | 234° |
| 2026-05-05 05:15 | 60.33052 | -152.14679 | 11993 ft | 226 kts | 234° |
| 2026-05-05 05:16 | 60.32237 | -152.17383 | 11989 ft | 226 kts | 234° |
| 2026-05-05 05:16 | 60.31420 | -152.20090 | 11987 ft | 226 kts | 234° |
| 2026-05-05 05:16 | 60.30603 | -152.22796 | 11991 ft | 226 kts | 234° |
| 2026-05-05 05:16 | 60.29784 | -152.25508 | 11988 ft | 226 kts | 234° |
| 2026-05-05 05:17 | 60.28964 | -152.28220 | 11988 ft | 226 kts | 234° |
| 2026-05-05 05:17 | 60.28143 | -152.30933 | 11987 ft | 227 kts | 234° |
| 2026-05-05 05:17 | 60.27322 | -152.33644 | 11987 ft | 227 kts | 234° |
| 2026-05-05 05:17 | 60.26511 | -152.36322 | 11992 ft | 227 kts | 234° |
| 2026-05-05 05:18 | 60.25686 | -152.39043 | 11988 ft | 227 kts | 234° |
| 2026-05-05 05:18 | 60.24860 | -152.41766 | 11989 ft | 227 kts | 234° |
| 2026-05-05 05:18 | 60.24035 | -152.44484 | 11985 ft | 228 kts | 234° |
| 2026-05-05 05:18 | 60.23207 | -152.47212 | 11990 ft | 228 kts | 234° |
| 2026-05-05 05:19 | 60.22380 | -152.49935 | 11989 ft | 228 kts | 234° |
| 2026-05-05 05:19 | 60.21552 | -152.52659 | 11987 ft | 228 kts | 234° |
| 2026-05-05 05:19 | 60.20720 | -152.55389 | 11990 ft | 228 kts | 234° |
| 2026-05-05 05:19 | 60.19890 | -152.58113 | 11990 ft | 229 kts | 234° |
| 2026-05-05 05:20 | 60.19060 | -152.60840 | 11985 ft | 229 kts | 234° |
| 2026-05-05 05:20 | 60.18229 | -152.63567 | 11984 ft | 229 kts | 234° |
| 2026-05-05 05:20 | 60.17397 | -152.66298 | 11985 ft | 229 kts | 234° |
| 2026-05-05 05:20 | 60.16562 | -152.69032 | 11986 ft | 230 kts | 234° |
| 2026-05-05 05:21 | 60.15730 | -152.71762 | 11988 ft | 230 kts | 234° |
| 2026-05-05 05:21 | 60.14894 | -152.74501 | 11984 ft | 229 kts | 233° |
| 2026-05-05 05:21 | 60.14063 | -152.77220 | 11964 ft | 229 kts | 234° |
| 2026-05-05 05:21 | 60.13230 | -152.79939 | 12057 ft | 226 kts | 234° |
| 2026-05-05 05:22 | 60.12419 | -152.82605 | 12186 ft | 222 kts | 234° |
| 2026-05-05 05:22 | 60.11622 | -152.85218 | 12384 ft | 217 kts | 233° |
| 2026-05-05 05:22 | 60.10843 | -152.87770 | 12625 ft | 212 kts | 233° |
| 2026-05-05 05:22 | 60.10081 | -152.90261 | 12850 ft | 209 kts | 233° |
| 2026-05-05 05:23 | 60.09323 | -152.92732 | 13027 ft | 207 kts | 233° |
| 2026-05-05 05:23 | 60.08572 | -152.95176 | 13178 ft | 205 kts | 233° |
| 2026-05-05 05:23 | 60.07821 | -152.97607 | 13285 ft | 204 kts | 233° |
| 2026-05-05 05:23 | 60.07077 | -153.00024 | 13434 ft | 203 kts | 233° |
| 2026-05-05 05:24 | 60.06337 | -153.02428 | 13596 ft | 202 kts | 233° |
| 2026-05-05 05:24 | 60.05600 | -153.04829 | 13713 ft | 202 kts | 233° |
| 2026-05-05 05:24 | 60.04861 | -153.07226 | 13785 ft | 204 kts | 234° |
| 2026-05-05 05:24 | 60.04114 | -153.09644 | 13821 ft | 204 kts | 233° |
| 2026-05-05 05:25 | 60.03364 | -153.12068 | 13885 ft | 206 kts | 233° |
| 2026-05-05 05:25 | 60.02615 | -153.14501 | 14005 ft | 206 kts | 233° |
| 2026-05-05 05:25 | 60.01854 | -153.16972 | 14018 ft | 211 kts | 233° |
| 2026-05-05 05:25 | 60.01073 | -153.19492 | 14031 ft | 214 kts | 233° |
| 2026-05-05 05:26 | 60.00286 | -153.22033 | 14021 ft | 217 kts | 233° |
| 2026-05-05 05:26 | 59.99490 | -153.24609 | 14011 ft | 220 kts | 233° |
| 2026-05-05 05:26 | 59.98679 | -153.27218 | 14029 ft | 222 kts | 233° |
| 2026-05-05 05:26 | 59.97863 | -153.29850 | 14044 ft | 225 kts | 233° |
| 2026-05-05 05:27 | 59.97035 | -153.32515 | 14031 ft | 227 kts | 233° |
| 2026-05-05 05:27 | 59.94610 | -153.40315 | 14002 ft | 229 kts | 233° |
| 2026-05-05 05:28 | 59.93774 | -153.43005 | 13995 ft | 228 kts | 233° |
| 2026-05-05 05:28 | 59.92935 | -153.45704 | 13989 ft | 229 kts | 234° |
| 2026-05-05 05:28 | 59.92099 | -153.48394 | 13996 ft | 228 kts | 234° |
| 2026-05-05 05:28 | 59.91260 | -153.51097 | 13996 ft | 229 kts | 233° |
| 2026-05-05 05:29 | 59.90420 | -153.53796 | 14004 ft | 229 kts | 233° |
| 2026-05-05 05:29 | 59.89579 | -153.56494 | 14004 ft | 230 kts | 233° |
| 2026-05-05 05:29 | 59.88735 | -153.59203 | 13998 ft | 230 kts | 234° |
| 2026-05-05 05:29 | 59.87888 | -153.61916 | 14005 ft | 231 kts | 233° |
| 2026-05-05 05:30 | 59.87038 | -153.64637 | 13990 ft | 231 kts | 233° |
| 2026-05-05 05:30 | 59.86191 | -153.67355 | 13979 ft | 231 kts | 234° |
| 2026-05-05 05:30 | 59.85338 | -153.70078 | 13986 ft | 231 kts | 233° |
| 2026-05-05 05:30 | 59.84489 | -153.72796 | 13971 ft | 232 kts | 233° |
| 2026-05-05 05:31 | 59.83636 | -153.75525 | 13981 ft | 233 kts | 233° |
| 2026-05-05 05:31 | 59.82778 | -153.78261 | 13989 ft | 234 kts | 233° |
| 2026-05-05 05:31 | 59.81914 | -153.81020 | 13995 ft | 236 kts | 233° |
| 2026-05-05 05:31 | 59.81045 | -153.83793 | 13994 ft | 237 kts | 233° |
| 2026-05-05 05:32 | 59.80171 | -153.86578 | 13988 ft | 238 kts | 233° |
| 2026-05-05 05:32 | 59.79307 | -153.89330 | 13984 ft | 239 kts | 233° |
| 2026-05-05 05:32 | 59.78416 | -153.92169 | 13982 ft | 239 kts | 233° |
| 2026-05-05 05:32 | 59.77535 | -153.94972 | 13979 ft | 240 kts | 233° |
| 2026-05-05 05:33 | 59.76663 | -153.97748 | 13974 ft | 240 kts | 233° |
| 2026-05-05 05:33 | 59.75768 | -154.00591 | 13975 ft | 240 kts | 233° |
| 2026-05-05 05:33 | 59.74899 | -154.03356 | 13975 ft | 240 kts | 233° |
| 2026-05-05 05:33 | 59.74014 | -154.06164 | 13974 ft | 240 kts | 233° |
| 2026-05-05 05:34 | 59.73128 | -154.08974 | 13978 ft | 241 kts | 233° |
| 2026-05-05 05:34 | 59.72238 | -154.11795 | 13970 ft | 241 kts | 233° |
| 2026-05-05 05:34 | 59.71346 | -154.14618 | 13976 ft | 241 kts | 233° |
| 2026-05-05 05:34 | 59.70456 | -154.17435 | 13977 ft | 241 kts | 233° |
| 2026-05-05 05:35 | 59.69565 | -154.20251 | 13974 ft | 241 kts | 233° |
| 2026-05-05 05:35 | 59.68672 | -154.23070 | 13972 ft | 241 kts | 233° |
| 2026-05-05 05:35 | 59.67779 | -154.25887 | 13967 ft | 242 kts | 233° |
| 2026-05-05 05:35 | 59.66884 | -154.28708 | 13974 ft | 242 kts | 233° |
| 2026-05-05 05:36 | 59.65985 | -154.31528 | 13969 ft | 242 kts | 233° |
| 2026-05-05 05:36 | 59.65004 | -154.34208 | 13959 ft | 238 kts | 224° |
| 2026-05-05 05:36 | 59.63871 | -154.36568 | 13958 ft | 237 kts | 221° |
| 2026-05-05 05:36 | 59.62709 | -154.38885 | 13967 ft | 237 kts | 222° |
| 2026-05-05 05:37 | 59.61656 | -154.41412 | 13972 ft | 239 kts | 229° |
| 2026-05-05 05:37 | 59.60662 | -154.44054 | 13974 ft | 240 kts | 230° |
| 2026-05-05 05:37 | 59.59680 | -154.46731 | 13967 ft | 241 kts | 230° |
| 2026-05-05 05:37 | 59.58702 | -154.49422 | 13975 ft | 242 kts | 230° |
| 2026-05-05 05:38 | 59.57724 | -154.52123 | 13969 ft | 242 kts | 231° |
| 2026-05-05 05:38 | 59.56740 | -154.54828 | 13957 ft | 242 kts | 230° |
| 2026-05-05 05:38 | 59.55742 | -154.57504 | 13955 ft | 242 kts | 230° |
| 2026-05-05 05:38 | 59.54741 | -154.60183 | 13963 ft | 243 kts | 230° |
| 2026-05-05 05:39 | 59.53742 | -154.62863 | 13963 ft | 243 kts | 230° |
| 2026-05-05 05:39 | 59.52740 | -154.65542 | 13960 ft | 243 kts | 230° |
| 2026-05-05 05:39 | 59.51738 | -154.68219 | 13956 ft | 242 kts | 230° |
| 2026-05-05 05:39 | 59.50739 | -154.70887 | 13962 ft | 242 kts | 230° |
| 2026-05-05 05:40 | 59.49741 | -154.73561 | 13964 ft | 242 kts | 230° |
| 2026-05-05 05:40 | 59.48742 | -154.76225 | 13957 ft | 242 kts | 230° |
| 2026-05-05 05:40 | 59.47741 | -154.78898 | 14104 ft | 244 kts | 230° |
| 2026-05-05 05:40 | 59.46724 | -154.81610 | 14010 ft | 248 kts | 230° |
| 2026-05-05 05:41 | 59.45696 | -154.84343 | 13987 ft | 249 kts | 230° |
| 2026-05-05 05:41 | 59.44664 | -154.87093 | 13972 ft | 250 kts | 230° |
| 2026-05-05 05:41 | 59.43626 | -154.89843 | 13962 ft | 250 kts | 230° |
| 2026-05-05 05:41 | 59.42593 | -154.92603 | 13959 ft | 251 kts | 230° |
| 2026-05-05 05:42 | 59.41557 | -154.95357 | 13957 ft | 250 kts | 230° |
| 2026-05-05 05:42 | 59.40522 | -154.98109 | 13954 ft | 251 kts | 230° |
| 2026-05-05 05:42 | 59.39483 | -155.00862 | 13952 ft | 251 kts | 230° |
| 2026-05-05 05:42 | 59.38443 | -155.03607 | 13956 ft | 251 kts | 230° |
| 2026-05-05 05:43 | 59.37408 | -155.06371 | 13960 ft | 251 kts | 230° |
| 2026-05-05 05:43 | 59.36368 | -155.09122 | 13953 ft | 252 kts | 229° |
| 2026-05-05 05:43 | 59.35324 | -155.11880 | 13951 ft | 252 kts | 230° |
| 2026-05-05 05:43 | 59.34280 | -155.14647 | 13949 ft | 252 kts | 230° |
| 2026-05-05 05:44 | 59.33237 | -155.17411 | 13950 ft | 252 kts | 230° |
| 2026-05-05 05:44 | 59.32191 | -155.20171 | 13950 ft | 252 kts | 230° |
| 2026-05-05 05:44 | 59.31143 | -155.22926 | 13949 ft | 252 kts | 230° |
| 2026-05-05 05:44 | 59.30102 | -155.25690 | 13949 ft | 252 kts | 230° |
| 2026-05-05 05:45 | 59.29053 | -155.28454 | 13948 ft | 253 kts | 230° |
| 2026-05-05 05:45 | 59.28006 | -155.31217 | 13951 ft | 253 kts | 230° |
| 2026-05-05 05:45 | 59.26961 | -155.33970 | 13949 ft | 253 kts | 230° |
| 2026-05-05 05:45 | 59.25909 | -155.36741 | 13949 ft | 253 kts | 230° |
| 2026-05-05 05:46 | 59.24859 | -155.39507 | 13954 ft | 254 kts | 230° |
| 2026-05-05 05:46 | 59.23804 | -155.42276 | 13947 ft | 254 kts | 230° |
| 2026-05-05 05:46 | 59.22748 | -155.45048 | 13947 ft | 255 kts | 230° |
| 2026-05-05 05:46 | 59.21691 | -155.47827 | 13943 ft | 255 kts | 230° |
| 2026-05-05 05:47 | 59.20633 | -155.50608 | 13947 ft | 255 kts | 230° |
| 2026-05-05 05:47 | 59.19571 | -155.53383 | 13944 ft | 255 kts | 230° |
| 2026-05-05 05:47 | 59.18516 | -155.56159 | 13977 ft | 254 kts | 230° |
| 2026-05-05 05:47 | 59.17458 | -155.58920 | 13989 ft | 254 kts | 230° |
| 2026-05-05 05:48 | 59.16404 | -155.61689 | 13993 ft | 255 kts | 230° |
| 2026-05-05 05:48 | 59.15344 | -155.64460 | 14002 ft | 254 kts | 230° |
| 2026-05-05 05:48 | 59.14288 | -155.67229 | 14000 ft | 255 kts | 230° |
| 2026-05-05 05:48 | 59.13587 | -155.69061 | 13995 ft | 255 kts | 230° |
| 2026-05-05 05:49 | 59.12524 | -155.71832 | 13998 ft | 255 kts | 230° |
| 2026-05-05 05:49 | 59.11461 | -155.74603 | 13999 ft | 256 kts | 230° |
| 2026-05-05 05:49 | 59.10396 | -155.77390 | 13999 ft | 257 kts | 230° |
| 2026-05-05 05:49 | 59.09324 | -155.80187 | 13997 ft | 258 kts | 230° |
| 2026-05-05 05:50 | 59.08248 | -155.82981 | 13996 ft | 258 kts | 229° |
| 2026-05-05 05:50 | 59.07167 | -155.85791 | 13994 ft | 259 kts | 231° |
| 2026-05-05 05:50 | 59.06092 | -155.88616 | 13993 ft | 260 kts | 230° |
| 2026-05-05 05:50 | 59.05007 | -155.91432 | 13990 ft | 260 kts | 230° |
| 2026-05-05 05:51 | 59.03921 | -155.94254 | 13985 ft | 261 kts | 230° |
| 2026-05-05 05:51 | 59.02834 | -155.97073 | 13981 ft | 261 kts | 230° |
| 2026-05-05 05:51 | 59.01745 | -155.99896 | 13984 ft | 261 kts | 230° |
| 2026-05-05 05:51 | 59.00654 | -156.02727 | 13981 ft | 262 kts | 230° |
| 2026-05-05 05:52 | 58.99562 | -156.05557 | 13979 ft | 262 kts | 230° |
| 2026-05-05 05:52 | 58.98468 | -156.08393 | 13976 ft | 262 kts | 230° |
| 2026-05-05 05:52 | 58.97373 | -156.11227 | 13968 ft | 263 kts | 230° |
| 2026-05-05 05:52 | 58.96276 | -156.14066 | 13967 ft | 263 kts | 231° |
| 2026-05-05 05:53 | 58.95185 | -156.16892 | 13965 ft | 263 kts | 230° |
| 2026-05-05 05:53 | 58.94084 | -156.19733 | 13965 ft | 263 kts | 231° |
| 2026-05-05 05:53 | 58.93000 | -156.22543 | 13957 ft | 263 kts | 230° |
| 2026-05-05 05:53 | 58.91899 | -156.25380 | 13948 ft | 263 kts | 231° |
| 2026-05-05 05:54 | 58.90798 | -156.28217 | 13945 ft | 263 kts | 231° |
| 2026-05-05 05:54 | 58.89700 | -156.31050 | 13939 ft | 263 kts | 231° |
| 2026-05-05 05:54 | 58.88599 | -156.33890 | 13936 ft | 264 kts | 231° |
| 2026-05-05 05:54 | 58.87498 | -156.36723 | 13931 ft | 264 kts | 231° |
| 2026-05-05 05:55 | 58.86395 | -156.39557 | 13927 ft | 264 kts | 231° |
| 2026-05-05 05:55 | 58.85296 | -156.42388 | 13922 ft | 264 kts | 231° |
| 2026-05-05 05:55 | 58.84192 | -156.45226 | 13917 ft | 264 kts | 231° |
| 2026-05-05 05:55 | 58.83089 | -156.48057 | 13914 ft | 264 kts | 231° |
| 2026-05-05 05:56 | 58.81983 | -156.50894 | 13913 ft | 264 kts | 231° |
| 2026-05-05 05:56 | 58.80880 | -156.53725 | 13908 ft | 264 kts | 231° |
| 2026-05-05 05:56 | 58.79776 | -156.56555 | 13905 ft | 264 kts | 232° |
| 2026-05-05 05:56 | 58.78673 | -156.59380 | 13904 ft | 264 kts | 232° |
| 2026-05-05 05:57 | 58.77568 | -156.62211 | 13901 ft | 264 kts | 232° |
| 2026-05-05 05:57 | 58.76462 | -156.65034 | 13896 ft | 264 kts | 232° |
| 2026-05-05 05:57 | 58.75357 | -156.67868 | 13898 ft | 264 kts | 232° |
| 2026-05-05 05:57 | 58.74251 | -156.70691 | 13898 ft | 264 kts | 232° |
| 2026-05-05 05:58 | 58.73148 | -156.73509 | 13900 ft | 264 kts | 232° |
| 2026-05-05 05:58 | 58.72040 | -156.76330 | 13901 ft | 264 kts | 232° |
| 2026-05-05 05:58 | 58.70933 | -156.79147 | 13900 ft | 264 kts | 233° |
| 2026-05-05 05:58 | 58.69826 | -156.81960 | 13900 ft | 264 kts | 233° |
| 2026-05-05 05:59 | 58.68718 | -156.84776 | 13937 ft | 264 kts | 233° |
| 2026-05-05 05:59 | 58.67610 | -156.87589 | 13937 ft | 264 kts | 233° |
| 2026-05-05 05:59 | 58.66504 | -156.90397 | 13938 ft | 264 kts | 233° |
| 2026-05-05 05:59 | 58.65398 | -156.93201 | 13937 ft | 264 kts | 233° |
| 2026-05-05 06:00 | 58.64188 | -156.95835 | 13930 ft | 263 kts | 221° |
| 2026-05-05 06:00 | 58.62606 | -156.97485 | 13931 ft | 258 kts | 198° |
| 2026-05-05 06:00 | 58.60936 | -156.98749 | 13926 ft | 258 kts | 205° |
| 2026-05-05 06:00 | 58.59518 | -157.00841 | 13929 ft | 257 kts | 224° |
| 2026-05-05 06:01 | 58.58245 | -157.03236 | 13935 ft | 257 kts | 226° |
| 2026-05-05 06:01 | 58.57001 | -157.05670 | 13932 ft | 257 kts | 226° |
| 2026-05-05 06:01 | 58.55747 | -157.08144 | 13933 ft | 258 kts | 226° |
| 2026-05-05 06:01 | 58.54501 | -157.10626 | 13930 ft | 259 kts | 227° |
| 2026-05-05 06:02 | 58.53254 | -157.13128 | 13934 ft | 260 kts | 227° |
| 2026-05-05 06:02 | 58.52009 | -157.15634 | 13936 ft | 260 kts | 227° |
| 2026-05-05 06:02 | 58.50758 | -157.18156 | 13936 ft | 261 kts | 227° |
| 2026-05-05 06:02 | 58.49504 | -157.20664 | 13949 ft | 262 kts | 227° |
| 2026-05-05 06:03 | 58.48233 | -157.23163 | 13950 ft | 262 kts | 227° |
| 2026-05-05 06:03 | 58.46957 | -157.25666 | 13944 ft | 263 kts | 227° |
| 2026-05-05 06:03 | 58.45695 | -157.28145 | 13941 ft | 263 kts | 227° |
| 2026-05-05 06:03 | 58.44413 | -157.30658 | 13944 ft | 264 kts | 227° |
| 2026-05-05 06:04 | 58.43132 | -157.33169 | 13943 ft | 264 kts | 227° |
| 2026-05-05 06:04 | 58.41847 | -157.35674 | 13943 ft | 264 kts | 227° |
| 2026-05-05 06:04 | 58.40567 | -157.38193 | 13942 ft | 264 kts | 227° |
| 2026-05-05 06:04 | 58.39282 | -157.40705 | 13945 ft | 265 kts | 227° |
| 2026-05-05 06:05 | 58.37997 | -157.43211 | 13944 ft | 265 kts | 227° |
| 2026-05-05 06:05 | 58.36709 | -157.45725 | 13943 ft | 265 kts | 227° |
| 2026-05-05 06:05 | 58.35422 | -157.48236 | 13948 ft | 265 kts | 226° |
| 2026-05-05 06:05 | 58.34130 | -157.50738 | 13945 ft | 265 kts | 227° |
| 2026-05-05 06:06 | 58.32849 | -157.53251 | 13946 ft | 265 kts | 227° |
| 2026-05-05 06:06 | 58.31561 | -157.55757 | 13946 ft | 265 kts | 227° |
| 2026-05-05 06:06 | 58.30271 | -157.58266 | 13944 ft | 265 kts | 227° |
| 2026-05-05 06:06 | 58.28979 | -157.60776 | 13948 ft | 266 kts | 227° |
| 2026-05-05 06:07 | 58.27686 | -157.63286 | 13946 ft | 266 kts | 227° |
| 2026-05-05 06:07 | 58.26388 | -157.65777 | 13945 ft | 265 kts | 226° |
| 2026-05-05 06:07 | 58.25097 | -157.68286 | 13945 ft | 265 kts | 227° |
| 2026-05-05 06:07 | 58.23816 | -157.70803 | 13947 ft | 265 kts | 227° |
| 2026-05-05 06:08 | 58.22521 | -157.73309 | 13946 ft | 265 kts | 227° |
| 2026-05-05 06:08 | 58.21224 | -157.75812 | 13946 ft | 266 kts | 227° |
| 2026-05-05 06:08 | 58.19932 | -157.78309 | 13946 ft | 266 kts | 227° |
| 2026-05-05 06:08 | 58.18638 | -157.80808 | 13949 ft | 266 kts | 227° |
| 2026-05-05 06:09 | 58.17342 | -157.83308 | 13948 ft | 266 kts | 227° |
| 2026-05-05 06:09 | 58.16048 | -157.85803 | 13950 ft | 266 kts | 227° |
| 2026-05-05 06:09 | 58.14755 | -157.88296 | 13948 ft | 266 kts | 226° |
| 2026-05-05 06:09 | 58.13460 | -157.90791 | 13950 ft | 266 kts | 226° |
| 2026-05-05 06:10 | 58.12162 | -157.93273 | 13951 ft | 265 kts | 226° |
| 2026-05-05 06:10 | 58.10873 | -157.95767 | 13953 ft | 265 kts | 227° |
| 2026-05-05 06:10 | 58.09580 | -157.98258 | 13958 ft | 265 kts | 226° |
| 2026-05-05 06:10 | 58.08288 | -158.00736 | 13953 ft | 265 kts | 226° |
| 2026-05-05 06:11 | 58.06990 | -158.03227 | 13957 ft | 265 kts | 226° |
| 2026-05-05 06:11 | 58.05696 | -158.05712 | 13960 ft | 265 kts | 226° |
| 2026-05-05 06:11 | 58.04406 | -158.08183 | 13973 ft | 264 kts | 226° |
| 2026-05-05 06:11 | 58.03107 | -158.10650 | 13984 ft | 264 kts | 226° |
| 2026-05-05 06:12 | 58.01828 | -158.13111 | 13999 ft | 263 kts | 227° |
| 2026-05-05 06:12 | 58.00544 | -158.15584 | 14001 ft | 263 kts | 226° |
| 2026-05-05 06:12 | 57.99257 | -158.18039 | 14003 ft | 263 kts | 226° |
| 2026-05-05 06:12 | 57.97968 | -158.20498 | 14003 ft | 263 kts | 226° |
| 2026-05-05 06:13 | 57.96681 | -158.22952 | 14002 ft | 264 kts | 226° |
| 2026-05-05 06:13 | 57.95388 | -158.25418 | 14001 ft | 264 kts | 226° |
| 2026-05-05 06:13 | 57.94115 | -158.27843 | 14013 ft | 264 kts | 226° |
| 2026-05-05 06:13 | 57.92826 | -158.30295 | 14004 ft | 263 kts | 226° |
| 2026-05-05 06:14 | 57.91521 | -158.32761 | 14012 ft | 263 kts | 227° |
| 2026-05-05 06:14 | 57.90254 | -158.35197 | 14015 ft | 263 kts | 227° |
| 2026-05-05 06:14 | 57.88968 | -158.37642 | 14009 ft | 263 kts | 226° |
| 2026-05-05 06:14 | 57.87680 | -158.40083 | 14014 ft | 263 kts | 226° |
| 2026-05-05 06:15 | 57.86392 | -158.42526 | 14011 ft | 263 kts | 226° |
| 2026-05-05 06:15 | 57.85104 | -158.44967 | 14006 ft | 263 kts | 226° |
| 2026-05-05 06:15 | 57.83818 | -158.47405 | 14013 ft | 263 kts | 227° |
| 2026-05-05 06:15 | 57.82532 | -158.49840 | 14017 ft | 263 kts | 226° |
| 2026-05-05 06:16 | 57.81244 | -158.52276 | 14018 ft | 263 kts | 226° |
| 2026-05-05 06:16 | 57.79944 | -158.54700 | 14016 ft | 262 kts | 226° |
| 2026-05-05 06:16 | 57.78660 | -158.57133 | 14017 ft | 262 kts | 227° |
| 2026-05-05 06:16 | 57.77385 | -158.59578 | 14019 ft | 262 kts | 227° |
| 2026-05-05 06:17 | 57.76105 | -158.62002 | 14021 ft | 263 kts | 226° |
| 2026-05-05 06:17 | 57.74813 | -158.64429 | 14022 ft | 263 kts | 226° |
| 2026-05-05 06:17 | 57.73524 | -158.66853 | 14022 ft | 263 kts | 227° |
| 2026-05-05 06:17 | 57.72232 | -158.69283 | 14018 ft | 263 kts | 227° |
| 2026-05-05 06:18 | 57.70941 | -158.71711 | 14019 ft | 263 kts | 227° |
| 2026-05-05 06:18 | 57.69650 | -158.74138 | 14023 ft | 263 kts | 227° |
| 2026-05-05 06:18 | 57.68356 | -158.76568 | 14025 ft | 263 kts | 227° |
| 2026-05-05 06:18 | 57.67064 | -158.78994 | 14027 ft | 263 kts | 227° |
| 2026-05-05 06:19 | 57.65763 | -158.81407 | 14022 ft | 263 kts | 227° |
| 2026-05-05 06:19 | 57.64478 | -158.83839 | 14027 ft | 263 kts | 227° |
| 2026-05-05 06:19 | 57.63209 | -158.86234 | 14027 ft | 263 kts | 227° |
| 2026-05-05 06:19 | 57.61915 | -158.88652 | 14028 ft | 263 kts | 227° |
| 2026-05-05 06:20 | 57.60605 | -158.91099 | 14031 ft | 263 kts | 227° |
| 2026-05-05 06:20 | 57.59315 | -158.93511 | 14034 ft | 263 kts | 227° |
| 2026-05-05 06:20 | 57.58038 | -158.95894 | 14034 ft | 263 kts | 227° |
| 2026-05-05 06:20 | 57.56741 | -158.98315 | 14036 ft | 263 kts | 227° |
| 2026-05-05 06:21 | 57.55447 | -159.00730 | 14036 ft | 263 kts | 227° |
| 2026-05-05 06:21 | 57.54138 | -159.03169 | 14037 ft | 263 kts | 227° |
| 2026-05-05 06:21 | 57.52846 | -159.05577 | 14038 ft | 263 kts | 227° |
| 2026-05-05 06:21 | 57.51546 | -159.07973 | 14037 ft | 262 kts | 227° |
| 2026-05-05 06:22 | 57.50260 | -159.10371 | 14037 ft | 262 kts | 227° |
| 2026-05-05 06:22 | 57.48977 | -159.12784 | 14039 ft | 262 kts | 227° |
| 2026-05-05 06:22 | 57.47687 | -159.15180 | 14039 ft | 262 kts | 227° |
| 2026-05-05 06:22 | 57.46395 | -159.17575 | 14041 ft | 262 kts | 227° |
| 2026-05-05 06:23 | 57.45102 | -159.19971 | 14042 ft | 263 kts | 227° |
| 2026-05-05 06:23 | 57.43809 | -159.22367 | 14042 ft | 263 kts | 227° |
| 2026-05-05 06:23 | 57.42516 | -159.24761 | 14047 ft | 263 kts | 227° |
| 2026-05-05 06:23 | 57.41223 | -159.27155 | 14044 ft | 263 kts | 227° |
| 2026-05-05 06:24 | 57.39922 | -159.29546 | 14048 ft | 262 kts | 226° |
| 2026-05-05 06:24 | 57.38628 | -159.31927 | 14051 ft | 262 kts | 227° |
| 2026-05-05 06:24 | 57.37345 | -159.34328 | 14050 ft | 262 kts | 227° |
| 2026-05-05 06:24 | 57.36055 | -159.36717 | 14054 ft | 262 kts | 227° |
| 2026-05-05 06:25 | 57.34778 | -159.39067 | 14050 ft | 262 kts | 227° |
| 2026-05-05 06:25 | 57.33481 | -159.41456 | 14051 ft | 262 kts | 227° |
| 2026-05-05 06:25 | 57.32186 | -159.43840 | 14053 ft | 262 kts | 227° |
| 2026-05-05 06:25 | 57.30891 | -159.46224 | 14055 ft | 262 kts | 227° |
| 2026-05-05 06:26 | 57.29595 | -159.48606 | 14054 ft | 262 kts | 227° |
| 2026-05-05 06:26 | 57.28296 | -159.50964 | 14057 ft | 262 kts | 227° |
| 2026-05-05 06:26 | 57.27005 | -159.53342 | 14058 ft | 262 kts | 228° |
| 2026-05-05 06:26 | 57.25724 | -159.55726 | 14060 ft | 262 kts | 227° |
| 2026-05-05 06:27 | 57.24435 | -159.58097 | 14063 ft | 262 kts | 227° |
| 2026-05-05 06:27 | 57.21847 | -159.62831 | 14062 ft | 262 kts | 227° |
| 2026-05-05 06:27 | 57.20555 | -159.65193 | 14064 ft | 261 kts | 227° |
| 2026-05-05 06:28 | 57.19262 | -159.67556 | 14066 ft | 261 kts | 227° |
| 2026-05-05 06:28 | 57.17971 | -159.69916 | 14065 ft | 261 kts | 227° |
| 2026-05-05 06:28 | 57.16681 | -159.72272 | 14066 ft | 261 kts | 228° |
| 2026-05-05 06:28 | 57.15393 | -159.74624 | 14068 ft | 261 kts | 227° |
| 2026-05-05 06:29 | 57.14537 | -159.76173 | 14071 ft | 261 kts | 227° |
| 2026-05-05 06:29 | 57.12791 | -159.79281 | 14071 ft | 261 kts | 227° |
| 2026-05-05 06:29 | 57.11927 | -159.80817 | 14071 ft | 261 kts | 227° |
| 2026-05-05 06:29 | 57.10623 | -159.83133 | 14074 ft | 261 kts | 227° |
| 2026-05-05 06:30 | 57.09316 | -159.85451 | 14073 ft | 261 kts | 227° |
| 2026-05-05 06:30 | 57.08012 | -159.87763 | 14075 ft | 261 kts | 227° |
| 2026-05-05 06:30 | 57.06708 | -159.90068 | 14078 ft | 261 kts | 227° |
| 2026-05-05 06:30 | 57.05399 | -159.92380 | 14081 ft | 261 kts | 227° |
| 2026-05-05 06:31 | 57.04089 | -159.94692 | 14079 ft | 261 kts | 227° |
| 2026-05-05 06:31 | 57.02782 | -159.97000 | 14081 ft | 260 kts | 227° |
| 2026-05-05 06:31 | 57.01474 | -159.99308 | 14084 ft | 260 kts | 227° |
| 2026-05-05 06:31 | 57.00167 | -160.01610 | 14082 ft | 260 kts | 227° |
| 2026-05-05 06:32 | 56.98864 | -160.03907 | 14085 ft | 260 kts | 227° |
| 2026-05-05 06:32 | 56.97557 | -160.06210 | 14084 ft | 260 kts | 227° |
| 2026-05-05 06:32 | 56.96255 | -160.08505 | 14088 ft | 260 kts | 227° |
| 2026-05-05 06:32 | 56.94952 | -160.10801 | 14090 ft | 260 kts | 227° |
| 2026-05-05 06:33 | 56.93648 | -160.13096 | 14091 ft | 260 kts | 227° |
| 2026-05-05 06:33 | 56.92342 | -160.15394 | 14091 ft | 260 kts | 227° |
| 2026-05-05 06:33 | 56.91039 | -160.17685 | 14093 ft | 260 kts | 227° |
| 2026-05-05 06:33 | 56.89735 | -160.19979 | 14096 ft | 260 kts | 227° |
| 2026-05-05 06:34 | 56.88434 | -160.22271 | 14097 ft | 260 kts | 227° |
| 2026-05-05 06:34 | 56.87130 | -160.24562 | 14098 ft | 260 kts | 227° |
| 2026-05-05 06:34 | 56.85825 | -160.26855 | 14100 ft | 260 kts | 227° |
| 2026-05-05 06:34 | 56.84521 | -160.29145 | 14097 ft | 260 kts | 227° |
| 2026-05-05 06:35 | 56.83219 | -160.31429 | 14088 ft | 260 kts | 227° |
| 2026-05-05 06:35 | 56.81908 | -160.33734 | 14034 ft | 262 kts | 227° |
| 2026-05-05 06:35 | 56.80596 | -160.36039 | 14023 ft | 262 kts | 227° |
| 2026-05-05 06:35 | 56.79285 | -160.38341 | 14009 ft | 262 kts | 227° |
| 2026-05-05 06:36 | 56.77990 | -160.40612 | 14013 ft | 261 kts | 227° |
| 2026-05-05 06:36 | 56.76665 | -160.42933 | 14010 ft | 261 kts | 227° |
| 2026-05-05 06:36 | 56.75369 | -160.45204 | 14007 ft | 261 kts | 227° |
| 2026-05-05 06:36 | 56.74065 | -160.47487 | 14009 ft | 260 kts | 227° |
| 2026-05-05 06:37 | 56.72761 | -160.49768 | 14010 ft | 260 kts | 227° |
| 2026-05-05 06:37 | 56.71454 | -160.52053 | 14008 ft | 260 kts | 228° |
| 2026-05-05 06:37 | 56.70149 | -160.54332 | 14017 ft | 260 kts | 228° |
| 2026-05-05 06:37 | 56.68846 | -160.56609 | 14015 ft | 260 kts | 228° |
| 2026-05-05 06:38 | 56.67541 | -160.58886 | 14014 ft | 260 kts | 228° |
| 2026-05-05 06:38 | 56.66238 | -160.61162 | 14019 ft | 260 kts | 228° |
| 2026-05-05 06:38 | 56.64935 | -160.63434 | 14018 ft | 260 kts | 228° |
| 2026-05-05 06:38 | 56.63628 | -160.65713 | 14021 ft | 260 kts | 228° |
| 2026-05-05 06:39 | 56.62327 | -160.67981 | 14021 ft | 259 kts | 228° |
| 2026-05-05 06:39 | 56.61023 | -160.70249 | 14023 ft | 259 kts | 228° |
| 2026-05-05 06:39 | 56.59725 | -160.72509 | 14023 ft | 259 kts | 228° |
| 2026-05-05 06:39 | 56.58424 | -160.74770 | 14024 ft | 258 kts | 228° |
| 2026-05-05 06:40 | 56.57126 | -160.77026 | 14029 ft | 258 kts | 228° |
| 2026-05-05 06:40 | 56.55829 | -160.79278 | 14029 ft | 258 kts | 228° |
| 2026-05-05 06:40 | 56.54534 | -160.81525 | 14027 ft | 258 kts | 228° |
| 2026-05-05 06:40 | 56.53239 | -160.83772 | 14030 ft | 258 kts | 228° |
| 2026-05-05 06:41 | 56.51943 | -160.86021 | 14032 ft | 258 kts | 228° |
| 2026-05-05 06:41 | 56.50646 | -160.88269 | 14033 ft | 258 kts | 228° |
| 2026-05-05 06:41 | 56.49349 | -160.90517 | 14035 ft | 258 kts | 228° |
| 2026-05-05 06:41 | 56.48052 | -160.92762 | 14034 ft | 258 kts | 228° |
| 2026-05-05 06:42 | 56.46756 | -160.95007 | 14039 ft | 258 kts | 228° |
| 2026-05-05 06:42 | 56.45449 | -160.97270 | 14038 ft | 258 kts | 228° |
| 2026-05-05 06:42 | 56.44158 | -160.99504 | 14037 ft | 258 kts | 228° |
| 2026-05-05 06:42 | 56.42861 | -161.01747 | 14041 ft | 258 kts | 228° |
| 2026-05-05 06:43 | 56.41564 | -161.03990 | 14041 ft | 258 kts | 228° |
| 2026-05-05 06:43 | 56.40265 | -161.06236 | 14044 ft | 258 kts | 228° |
| 2026-05-05 06:43 | 56.38968 | -161.08476 | 14043 ft | 258 kts | 228° |
| 2026-05-05 06:43 | 56.37670 | -161.10718 | 14046 ft | 258 kts | 228° |
| 2026-05-05 06:44 | 56.36372 | -161.12958 | 14048 ft | 258 kts | 228° |
| 2026-05-05 06:44 | 56.35071 | -161.15203 | 14048 ft | 258 kts | 228° |
| 2026-05-05 06:44 | 56.33774 | -161.17439 | 14047 ft | 258 kts | 228° |
| 2026-05-05 06:44 | 56.32507 | -161.19713 | 14051 ft | 254 kts | 234° |
| 2026-05-05 06:45 | 56.31348 | -161.22090 | 14049 ft | 250 kts | 238° |
| 2026-05-05 06:45 | 56.30266 | -161.24502 | 14047 ft | 247 kts | 240° |
| 2026-05-05 06:45 | 56.29184 | -161.26896 | 14003 ft | 248 kts | 231° |
| 2026-05-05 06:45 | 56.27836 | -161.28870 | 14026 ft | 247 kts | 228° |
| 2026-05-05 06:46 | 56.26312 | -161.30354 | 13949 ft | 256 kts | 202° |
| 2026-05-05 06:46 | 56.24594 | -161.31096 | 14007 ft | 253 kts | 198° |
| 2026-05-05 06:46 | 56.22873 | -161.31740 | 14031 ft | 252 kts | 197° |
| 2026-05-05 06:46 | 56.21202 | -161.32594 | 14062 ft | 248 kts | 209° |
| 2026-05-05 06:47 | 56.19667 | -161.33943 | 14075 ft | 245 kts | 217° |
| 2026-05-05 06:47 | 56.18219 | -161.35537 | 14064 ft | 244 kts | 221° |
| 2026-05-05 06:47 | 56.16817 | -161.37240 | 14064 ft | 244 kts | 215° |
| 2026-05-05 06:47 | 56.15461 | -161.39042 | 14012 ft | 240 kts | 219° |
| 2026-05-05 06:48 | 56.14225 | -161.41009 | 14005 ft | 235 kts | 222° |
| 2026-05-05 06:48 | 56.13044 | -161.42996 | 14011 ft | 231 kts | 221° |
| 2026-05-05 06:48 | 56.11860 | -161.44910 | 14014 ft | 227 kts | 220° |
| 2026-05-05 06:48 | 56.10684 | -161.46779 | 14019 ft | 225 kts | 221° |
| 2026-05-05 06:49 | 56.09517 | -161.48628 | 14029 ft | 223 kts | 221° |
| 2026-05-05 06:49 | 56.08353 | -161.50467 | 14039 ft | 223 kts | 224° |
| 2026-05-05 06:49 | 56.07189 | -161.52325 | 14060 ft | 226 kts | 224° |
| 2026-05-05 06:49 | 56.05999 | -161.54174 | 14057 ft | 227 kts | 223° |
| 2026-05-05 06:50 | 56.04814 | -161.56063 | 14074 ft | 230 kts | 227° |
| 2026-05-05 06:50 | 56.03612 | -161.57989 | 14090 ft | 235 kts | 226° |
| 2026-05-05 06:50 | 56.02371 | -161.59932 | 14085 ft | 239 kts | 227° |
| 2026-05-05 06:50 | 56.01117 | -161.61915 | 14045 ft | 243 kts | 228° |
| 2026-05-05 06:51 | 55.99836 | -161.63944 | 14028 ft | 247 kts | 226° |
| 2026-05-05 06:51 | 55.98545 | -161.65985 | 14016 ft | 249 kts | 228° |
| 2026-05-05 06:51 | 55.97251 | -161.68047 | 14009 ft | 250 kts | 228° |
| 2026-05-05 06:51 | 55.95944 | -161.70105 | 14009 ft | 251 kts | 227° |
| 2026-05-05 06:52 | 55.94633 | -161.72158 | 14012 ft | 251 kts | 227° |
| 2026-05-05 06:52 | 55.93327 | -161.74229 | 14011 ft | 251 kts | 229° |
| 2026-05-05 06:52 | 55.92023 | -161.76288 | 14018 ft | 250 kts | 229° |
| 2026-05-05 06:52 | 55.90724 | -161.78328 | 14022 ft | 248 kts | 230° |
| 2026-05-05 06:53 | 55.89436 | -161.80352 | 14016 ft | 247 kts | 230° |
| 2026-05-05 06:53 | 55.88149 | -161.82370 | 14020 ft | 245 kts | 229° |
| 2026-05-05 06:53 | 55.86867 | -161.84370 | 14033 ft | 246 kts | 227° |
| 2026-05-05 06:53 | 55.85582 | -161.86400 | 14035 ft | 247 kts | 229° |
| 2026-05-05 06:54 | 55.84296 | -161.88448 | 14033 ft | 249 kts | 226° |
| 2026-05-05 06:54 | 55.82985 | -161.90484 | 14032 ft | 251 kts | 226° |
| 2026-05-05 06:54 | 55.81678 | -161.92528 | 14027 ft | 247 kts | 226° |
| 2026-05-05 06:54 | 55.80403 | -161.94523 | 13983 ft | 242 kts | 226° |
| 2026-05-05 06:55 | 55.79142 | -161.96509 | 13811 ft | 241 kts | 226° |
| 2026-05-05 06:55 | 55.77885 | -161.98465 | 13670 ft | 239 kts | 225° |
| 2026-05-05 06:55 | 55.76644 | -162.00394 | 13508 ft | 236 kts | 226° |
| 2026-05-05 06:55 | 55.75419 | -162.02321 | 13346 ft | 235 kts | 227° |
| 2026-05-05 06:56 | 55.74209 | -162.04210 | 13182 ft | 234 kts | 227° |
| 2026-05-05 06:56 | 55.72987 | -162.06109 | 13026 ft | 233 kts | 226° |
| 2026-05-05 06:56 | 55.71770 | -162.08000 | 12857 ft | 233 kts | 226° |
| 2026-05-05 06:56 | 55.70547 | -162.09906 | 12690 ft | 233 kts | 227° |
| 2026-05-05 06:57 | 55.69328 | -162.11811 | 12514 ft | 234 kts | 226° |
| 2026-05-05 06:57 | 55.68108 | -162.13709 | 12349 ft | 234 kts | 226° |
| 2026-05-05 06:57 | 55.66882 | -162.15614 | 12190 ft | 234 kts | 227° |
| 2026-05-05 06:57 | 55.65638 | -162.17551 | 12025 ft | 235 kts | 227° |
| 2026-05-05 06:58 | 55.64428 | -162.19428 | 11853 ft | 235 kts | 227° |
| 2026-05-05 06:58 | 55.63198 | -162.21336 | 11698 ft | 235 kts | 226° |
| 2026-05-05 06:58 | 55.61968 | -162.23245 | 11537 ft | 235 kts | 226° |
| 2026-05-05 06:58 | 55.60735 | -162.25155 | 11384 ft | 236 kts | 226° |
| 2026-05-05 06:59 | 55.59486 | -162.27090 | 11226 ft | 236 kts | 227° |
| 2026-05-05 06:59 | 55.58257 | -162.28995 | 11075 ft | 236 kts | 226° |
| 2026-05-05 06:59 | 55.57036 | -162.30884 | 10923 ft | 234 kts | 226° |
| 2026-05-05 06:59 | 55.55820 | -162.32762 | 10749 ft | 231 kts | 227° |
| 2026-05-05 07:00 | 55.54614 | -162.34625 | 10582 ft | 229 kts | 227° |
| 2026-05-05 07:00 | 55.53418 | -162.36475 | 10411 ft | 228 kts | 227° |
| 2026-05-05 07:00 | 55.52225 | -162.38313 | 10241 ft | 227 kts | 227° |
| 2026-05-05 07:00 | 55.51034 | -162.40151 | 10065 ft | 227 kts | 227° |
| 2026-05-05 07:01 | 55.49831 | -162.42005 | 9909 ft | 227 kts | 227° |
| 2026-05-05 07:01 | 55.48658 | -162.43812 | 9746 ft | 226 kts | 227° |
| 2026-05-05 07:01 | 55.47472 | -162.45639 | 9563 ft | 226 kts | 227° |
| 2026-05-05 07:01 | 55.46292 | -162.47457 | 9369 ft | 225 kts | 227° |
| 2026-05-05 07:02 | 55.45112 | -162.49271 | 9183 ft | 225 kts | 227° |
| 2026-05-05 07:02 | 55.43933 | -162.51085 | 9002 ft | 225 kts | 227° |
| 2026-05-05 07:02 | 55.42754 | -162.52893 | 8825 ft | 225 kts | 227° |
| 2026-05-05 07:02 | 55.41579 | -162.54697 | 8648 ft | 223 kts | 227° |
| 2026-05-05 07:03 | 55.40409 | -162.56492 | 8465 ft | 223 kts | 227° |
| 2026-05-05 07:03 | 55.39243 | -162.58280 | 8276 ft | 222 kts | 227° |
| 2026-05-05 07:03 | 55.38081 | -162.60062 | 8099 ft | 221 kts | 227° |
| 2026-05-05 07:03 | 55.36921 | -162.61837 | 7922 ft | 222 kts | 227° |
| 2026-05-05 07:04 | 55.35751 | -162.63629 | 7770 ft | 224 kts | 227° |
| 2026-05-05 07:04 | 55.34569 | -162.65439 | 7635 ft | 226 kts | 227° |
| 2026-05-05 07:04 | 55.33386 | -162.67244 | 7483 ft | 225 kts | 227° |
| 2026-05-05 07:04 | 55.32210 | -162.69038 | 7331 ft | 223 kts | 227° |
| 2026-05-05 07:05 | 55.31038 | -162.70823 | 7166 ft | 223 kts | 227° |
| 2026-05-05 07:05 | 55.29875 | -162.72585 | 7101 ft | 217 kts | 227° |
| 2026-05-05 07:05 | 55.28743 | -162.74283 | 7092 ft | 211 kts | 227° |
| 2026-05-05 07:05 | 55.27550 | -162.75800 | 7062 ft | 219 kts | 207° |
| 2026-05-05 07:06 | 55.26050 | -162.76369 | 7097 ft | 221 kts | 192° |
| 2026-05-05 07:06 | 55.24520 | -162.76681 | 7093 ft | 224 kts | 176° |
| 2026-05-05 07:06 | 55.23069 | -162.75729 | 6958 ft | 224 kts | 138° |
| 2026-05-05 07:06 | 55.21852 | -162.74095 | 6850 ft | 220 kts | 139° |
| 2026-05-05 07:07 | 55.20574 | -162.72630 | 6703 ft | 220 kts | 148° |
| 2026-05-05 07:07 | 55.19179 | -162.71505 | 6577 ft | 221 kts | 154° |
| 2026-05-05 07:07 | 55.17777 | -162.70416 | 6455 ft | 220 kts | 154° |
| 2026-05-05 07:07 | 55.16381 | -162.69332 | 6316 ft | 219 kts | 155° |
| 2026-05-05 07:08 | 55.14984 | -162.68253 | 6171 ft | 219 kts | 155° |
| 2026-05-05 07:08 | 55.13591 | -162.67172 | 6001 ft | 218 kts | 154° |
| 2026-05-05 07:08 | 55.12203 | -162.66103 | 5816 ft | 218 kts | 154° |
| 2026-05-05 07:08 | 55.10820 | -162.65042 | 5636 ft | 217 kts | 154° |
| 2026-05-05 07:09 | 55.09436 | -162.63972 | 5471 ft | 218 kts | 154° |
| 2026-05-05 07:09 | 55.08051 | -162.62900 | 5296 ft | 218 kts | 154° |
| 2026-05-05 07:09 | 55.06667 | -162.61829 | 5126 ft | 216 kts | 154° |
| 2026-05-05 07:09 | 55.05311 | -162.60780 | 4958 ft | 216 kts | 154° |
| 2026-05-05 07:10 | 55.04387 | -162.60069 | 4850 ft | 216 kts | 154° |
| 2026-05-05 07:10 | 55.03025 | -162.59018 | 4670 ft | 210 kts | 154° |
| 2026-05-05 07:10 | 55.01709 | -162.58007 | 4470 ft | 204 kts | 155° |
| 2026-05-05 07:10 | 55.00455 | -162.57019 | 4415 ft | 190 kts | 154° |
| 2026-05-05 07:11 | 54.99241 | -162.56103 | 4503 ft | 192 kts | 154° |
| 2026-05-05 07:11 | 54.97999 | -162.55148 | 4605 ft | 197 kts | 154° |
| 2026-05-05 07:11 | 54.96336 | -162.53864 | 4631 ft | 196 kts | 154° |
| 2026-05-05 07:11 | 54.95495 | -162.53218 | 4647 ft | 196 kts | 154° |
| 2026-05-05 07:12 | 54.94261 | -162.52272 | 4637 ft | 192 kts | 154° |
| 2026-05-05 07:12 | 54.93037 | -162.51331 | 4622 ft | 193 kts | 154° |
| 2026-05-05 07:12 | 54.91801 | -162.50382 | 4607 ft | 195 kts | 154° |
| 2026-05-05 07:12 | 54.90552 | -162.49431 | 4600 ft | 197 kts | 154° |
| 2026-05-05 07:13 | 54.89301 | -162.48472 | 4597 ft | 196 kts | 153° |
| 2026-05-05 07:13 | 54.88063 | -162.47488 | 4587 ft | 194 kts | 148° |
| 2026-05-05 07:13 | 54.87154 | -162.45876 | 4581 ft | 185 kts | 118° |
| 2026-05-05 07:13 | 54.86319 | -162.44160 | 4589 ft | 186 kts | 123° |
| 2026-05-05 07:14 | 54.85462 | -162.42471 | 4592 ft | 187 kts | 124° |
| 2026-05-05 07:14 | 54.84610 | -162.40769 | 4590 ft | 188 kts | 124° |
| 2026-05-05 07:14 | 54.83753 | -162.39047 | 4593 ft | 189 kts | 123° |
| 2026-05-05 07:14 | 54.82816 | -162.37445 | 4553 ft | 195 kts | 145° |
| 2026-05-05 07:15 | 54.81504 | -162.36955 | 4556 ft | 195 kts | 188° |
| 2026-05-05 07:15 | 54.80314 | -162.37840 | 4569 ft | 181 kts | 230° |
| 2026-05-05 07:15 | 54.79715 | -162.39578 | 4586 ft | 161 kts | 270° |
| 2026-05-05 07:15 | 54.79846 | -162.41349 | 4596 ft | 142 kts | 308° |
| 2026-05-05 07:16 | 54.80540 | -162.42387 | 4631 ft | 130 kts | 344° |
| 2026-05-05 07:16 | 54.81357 | -162.43089 | 4618 ft | 132 kts | 341° |
| 2026-05-05 07:16 | 54.82216 | -162.43658 | 4616 ft | 133 kts | 345° |
| 2026-05-05 07:16 | 54.83095 | -162.44190 | 4607 ft | 135 kts | 344° |
| 2026-05-05 07:17 | 54.83990 | -162.44723 | 4602 ft | 136 kts | 344° |
| 2026-05-05 07:17 | 54.84871 | -162.45244 | 4595 ft | 130 kts | 343° |
| 2026-05-05 07:17 | 54.85692 | -162.45746 | 4572 ft | 120 kts | 341° |
| 2026-05-05 07:17 | 54.86444 | -162.46274 | 4562 ft | 116 kts | 339° |
| 2026-05-05 07:18 | 54.87196 | -162.46844 | 4629 ft | 120 kts | 338° |
| 2026-05-05 07:18 | 54.87999 | -162.47459 | 4625 ft | 131 kts | 336° |
| 2026-05-05 07:18 | 54.88862 | -162.48126 | 4639 ft | 140 kts | 339° |
| 2026-05-05 07:18 | 54.89753 | -162.48836 | 4634 ft | 144 kts | 335° |
| 2026-05-05 07:19 | 54.90602 | -162.49754 | 4598 ft | 140 kts | 327° |
| 2026-05-05 07:19 | 54.91340 | -162.50800 | 4436 ft | 137 kts | 324° |
| 2026-05-05 07:19 | 54.92071 | -162.51851 | 4252 ft | 136 kts | 325° |
| 2026-05-05 07:19 | 54.92803 | -162.52900 | 4098 ft | 136 kts | 325° |
| 2026-05-05 07:20 | 54.93525 | -162.53953 | 3902 ft | 135 kts | 325° |
| 2026-05-05 07:20 | 54.94242 | -162.54960 | 3701 ft | 130 kts | 333° |
| 2026-05-05 07:20 | 54.95062 | -162.55550 | 3494 ft | 125 kts | 342° |
| 2026-05-05 07:20 | 54.95873 | -162.56061 | 3266 ft | 123 kts | 342° |
| 2026-05-05 07:21 | 54.96670 | -162.56557 | 3088 ft | 120 kts | 342° |
| 2026-05-05 07:21 | 54.97455 | -162.57017 | 2923 ft | 121 kts | 342° |
| 2026-05-05 07:21 | 54.98271 | -162.57465 | 2806 ft | 125 kts | 343° |
| 2026-05-05 07:21 | 54.99101 | -162.57937 | 2693 ft | 126 kts | 341° |
| 2026-05-05 07:22 | 54.99915 | -162.58564 | 2603 ft | 129 kts | 336° |
| 2026-05-05 07:22 | 55.00738 | -162.59227 | 2537 ft | 131 kts | 336° |
| 2026-05-05 07:22 | 55.01577 | -162.59861 | 2475 ft | 132 kts | 339° |
| 2026-05-05 07:22 | 55.02410 | -162.60463 | 2369 ft | 127 kts | 339° |
| 2026-05-05 07:23 | 55.03215 | -162.61019 | 2278 ft | 117 kts | 342° |
| 2026-05-05 07:23 | 55.03950 | -162.61409 | 2267 ft | 105 kts | 343° |
| 2026-05-05 07:23 | 55.04650 | -162.61806 | 2293 ft | 108 kts | 342° |
| 2026-05-05 07:23 | 55.05368 | -162.62214 | 2319 ft | 112 kts | 342° |
| 2026-05-05 07:24 | 55.06115 | -162.62632 | 2326 ft | 113 kts | 342° |
| 2026-05-05 07:24 | 55.06857 | -162.63053 | 2325 ft | 111 kts | 342° |
| 2026-05-05 07:24 | 55.07575 | -162.63552 | 2322 ft | 111 kts | 339° |
| 2026-05-05 07:24 | 55.08258 | -162.64169 | 2301 ft | 110 kts | 336° |
| 2026-05-05 07:25 | 55.08959 | -162.64768 | 2317 ft | 114 kts | 336° |
| 2026-05-05 07:25 | 55.09683 | -162.65380 | 2284 ft | 117 kts | 338° |
| 2026-05-05 07:25 | 55.10459 | -162.65916 | 2195 ft | 121 kts | 341° |
| 2026-05-05 07:25 | 55.11277 | -162.66437 | 2021 ft | 128 kts | 341° |
| 2026-05-05 07:26 | 55.12143 | -162.66859 | 1884 ft | 130 kts | 342° |
| 2026-05-05 07:26 | 55.12983 | -162.67463 | 1636 ft | 129 kts | 336° |
| 2026-05-05 07:26 | 55.13788 | -162.68084 | 1345 ft | 122 kts | 337° |
| 2026-05-05 07:26 | 55.14519 | -162.68634 | 1155 ft | 109 kts | 336° |
| 2026-05-05 07:27 | 55.15234 | -162.69109 | 911 ft | 107 kts | 341° |
| 2026-05-05 07:27 | 55.15909 | -162.69451 | 877 ft | 95 kts | 340° |
| 2026-05-05 07:27 | 55.16534 | -162.69900 | 763 ft | 99 kts | 334° |
| 2026-05-05 07:27 | 55.17204 | -162.70298 | 706 ft | 104 kts | 338° |
| 2026-05-05 07:28 | 55.17866 | -162.70770 | 586 ft | 100 kts | 334° |
| 2026-05-05 07:28 | 55.18471 | -162.71193 | 410 ft | 91 kts | 334° |
| 2026-05-05 07:28 | 55.19061 | -162.71594 | 287 ft | 92 kts | 333° |
| 2026-05-05 07:28 | 55.19680 | -162.72033 | 147 ft | 99 kts | 335° |
| 2026-05-05 07:29 | 55.20268 | -162.72437 | 99 ft | 80 kts | 335° |
| 2026-05-05 07:29 | 55.20619 | -162.72681 | 98 ft | 34 kts | 339° |
| 2026-05-05 07:29 | 55.20848 | -162.72841 | 95 ft | 34 kts | 339° |
| 2026-05-05 07:29 | 55.21045 | -162.72979 | 94 ft | 26 kts | 341° |
| 2026-05-05 07:30 | 55.21194 | -162.73078 | 91 ft | 21 kts | 339° |
| 2026-05-05 07:30 | 55.21542 | -162.73319 | 88 ft | 30 kts | 339° |
| 2026-05-05 07:30 | 55.21729 | -162.73449 | 89 ft | 27 kts | 338° |
| 2026-05-05 07:31 | 55.21877 | -162.73551 | 89 ft | 18 kts | 338° |
| 2026-05-05 07:31 | 55.21981 | -162.73623 | 87 ft | 15 kts | 339° |
| 2026-05-05 07:31 | 55.22078 | -162.73692 | 87 ft | 14 kts | 336° |
| 2026-05-05 07:31 | 55.22167 | -162.73769 | 86 ft | 15 kts | 301° |
| 2026-05-05 07:32 | 55.22204 | -162.73879 | 84 ft | 2 kts | 6° |
| 2026-05-05 07:32 | 55.22216 | -162.73840 | 83 ft | 9 kts | 86° |
| 2026-05-05 07:32 | 55.22169 | -162.73750 | 87 ft | 12 kts | 158° |
| 2026-05-05 07:32 | 55.22072 | -162.73688 | 88 ft | 15 kts | 160° |
| 2026-05-05 07:33 | 55.21972 | -162.73628 | 85 ft | 15 kts | 162° |
| 2026-05-05 07:33 | 55.21881 | -162.73571 | 86 ft | 12 kts | 157° |
| 2026-05-05 07:33 | 55.21806 | -162.73503 | 87 ft | 15 kts | 154° |
| 2026-05-05 07:33 | 55.21687 | -162.73417 | 86 ft | 21 kts | 157° |
| 2026-05-05 07:34 | 55.21553 | -162.73325 | 89 ft | 19 kts | 160° |
| 2026-05-05 07:34 | 55.21446 | -162.73257 | 91 ft | 14 kts | 158° |
| 2026-05-05 07:34 | 55.21366 | -162.73195 | 92 ft | 11 kts | 155° |
| 2026-05-05 07:34 | 55.21297 | -162.73146 | 91 ft | 12 kts | 159° |
| 2026-05-05 07:35 | 55.21196 | -162.73082 | 93 ft | 18 kts | 160° |
| 2026-05-05 07:35 | 55.21060 | -162.72987 | 95 ft | 22 kts | 156° |
| 2026-05-05 07:35 | 55.20915 | -162.72877 | 97 ft | 25 kts | 156° |
| 2026-05-05 07:35 | 55.20760 | -162.72763 | 96 ft | 22 kts | 158° |
| 2026-05-05 07:36 | 55.20630 | -162.72680 | 98 ft | 18 kts | 161° |
| 2026-05-05 07:36 | 55.20523 | -162.72609 | 99 ft | 15 kts | 158° |
| 2026-05-05 07:36 | 55.20433 | -162.72540 | 98 ft | 13 kts | 154° |
| 2026-05-05 07:36 | 55.20334 | -162.72473 | 98 ft | 15 kts | 163° |
| 2026-05-05 07:37 | 55.20242 | -162.72418 | 98 ft | 13 kts | 158° |
| 2026-05-05 07:37 | 55.20158 | -162.72356 | 99 ft | 13 kts | 157° |
| 2026-05-05 07:37 | 55.20119 | -162.72331 | 98 ft | 0 kts | 160° |
| 2026-05-05 07:37 | 55.20118 | -162.72331 | 98 ft | 0 kts | 159° |
| 2026-05-05 07:38 | 55.20116 | -162.72327 | 98 ft | 3 kts | 129° |
| 2026-05-05 07:38 | 55.20143 | -162.72223 | 100 ft | 18 kts | 64° |
| 2026-05-05 07:38 | 55.20194 | -162.72017 | 99 ft | 16 kts | 66° |
| 2026-05-05 07:38 | 55.20257 | -162.71992 | 99 ft | 7 kts | 339° |
| 2026-05-05 07:39 | 55.20264 | -162.71996 | 99 ft | 0 kts | 339° |